createdAt,value
2023-05-18T00:02:01.482Z,22.98
2023-05-18T00:04:29.667Z,25.38
2023-05-18T00:06:57.060Z,24.80
2023-05-18T00:09:25.475Z,22.85
2023-05-18T00:11:53.078Z,22.17
2023-05-18T00:14:20.341Z,20.55
2023-05-18T00:16:47.786Z,21.65
2023-05-18T00:19:15.445Z,23.05
2023-05-18T00:21:43.160Z,22.80
2023-05-18T00:24:13.621Z,24.55
2023-05-18T00:26:41.180Z,23.13
2023-05-18T00:29:08.380Z,22.52
2023-05-18T00:31:39.291Z,27.33
2023-05-18T00:34:07.135Z,25.50
2023-05-18T00:36:34.396Z,23.08
2023-05-18T00:39:01.534Z,20.70
2023-05-18T00:41:28.792Z,20.40
2023-05-18T00:43:56.058Z,21.70
2023-05-18T00:46:23.678Z,20.77
2023-05-18T00:48:51.092Z,19.48
2023-05-18T00:51:23.318Z,18.35
2023-05-18T00:53:51.018Z,19.52
2023-05-18T00:56:18.157Z,20.50
2023-05-18T00:58:45.997Z,19.25
2023-05-18T01:01:13.266Z,19.55
2023-05-18T01:03:41.270Z,19.48
2023-05-18T01:06:09.225Z,22.52
2023-05-18T01:08:36.632Z,21.67
2023-05-18T01:11:15.849Z,19.88
2023-05-18T01:13:46.143Z,19.98
2023-05-18T01:16:13.736Z,21.13
2023-05-18T01:19:01.826Z,20.85
2023-05-18T01:21:36.162Z,21.17
2023-05-18T01:24:16.054Z,22.08
2023-05-18T01:26:45.334Z,21.58
2023-05-18T01:29:13.668Z,21.48
2023-05-18T01:31:41.106Z,22.35
2023-05-18T01:34:08.242Z,22.05
2023-05-18T01:36:35.633Z,22.65
2023-05-18T01:39:02.809Z,21.30
2023-05-18T01:41:30.444Z,22.42
2023-05-18T01:44:01.833Z,23.30
2023-05-18T01:46:33.671Z,23.73
2023-05-18T01:49:01.666Z,25.30
2023-05-18T01:51:31.400Z,25.60
2023-05-18T01:54:00.628Z,25.02
2023-05-18T01:56:27.788Z,24.75
2023-05-18T01:58:54.943Z,25.10
2023-05-18T02:01:23.964Z,24.55
2023-05-18T02:03:51.579Z,24.80
2023-05-18T02:06:18.933Z,26.15
2023-05-18T02:08:46.113Z,27.75
2023-05-18T02:11:13.228Z,25.83
2023-05-18T02:13:40.581Z,27.17
2023-05-18T02:16:08.042Z,25.77
2023-05-18T02:18:36.385Z,24.35
2023-05-18T02:21:04.260Z,26.33
2023-05-18T02:23:32.057Z,24.77
2023-05-18T02:25:59.271Z,24.52
2023-05-18T02:28:26.487Z,24.38
2023-05-18T02:30:53.676Z,25.90
2023-05-18T02:33:26.057Z,25.35
2023-05-18T02:35:53.490Z,25.13
2023-05-18T02:38:21.396Z,24.08
2023-05-18T02:40:48.520Z,24.17
2023-05-18T02:43:15.966Z,23.95
2023-05-18T02:45:43.091Z,23.95
2023-05-18T02:48:10.506Z,24.30
2023-05-18T02:50:37.673Z,23.25
2023-05-18T02:53:04.883Z,24.52
2023-05-18T02:55:32.225Z,25.05
2023-05-18T02:58:00.114Z,24.42
2023-05-18T03:00:29.536Z,23.88
2023-05-18T03:02:57.765Z,25.38
2023-05-18T03:05:25.040Z,25.50
2023-05-18T03:07:52.281Z,25.05
2023-05-18T03:10:19.672Z,25.45
2023-05-18T03:12:47.009Z,25.55
2023-05-18T03:15:16.092Z,25.45
2023-05-18T03:17:43.675Z,23.63
2023-05-18T03:20:11.532Z,23.48
2023-05-18T03:22:38.831Z,23.30
2023-05-18T03:25:06.087Z,24.75
2023-05-18T03:27:33.854Z,23.50
2023-05-18T03:30:01.199Z,24.58
2023-05-18T03:32:28.470Z,23.85
2023-05-18T03:34:55.836Z,23.17
2023-05-18T03:37:22.964Z,23.73
2023-05-18T03:39:50.198Z,25.52
2023-05-18T03:42:17.383Z,26.55
2023-05-18T03:44:44.537Z,24.83
2023-05-18T03:47:11.723Z,24.40
2023-05-18T03:49:38.894Z,21.67
2023-05-18T03:52:06.275Z,21.67
2023-05-18T03:54:33.926Z,17.80
2023-05-18T03:57:01.316Z,17.73
2023-05-18T03:59:28.511Z,17.52
2023-05-18T04:01:55.700Z,15.02
2023-05-18T04:04:23.482Z,14.73
2023-05-18T04:06:54.094Z,15.18
2023-05-18T04:09:23.865Z,14.13
2023-05-18T04:11:51.103Z,13.82
2023-05-18T04:14:18.415Z,12.45
2023-05-18T04:16:46.270Z,12.32
2023-05-18T04:19:13.814Z,12.60
2023-05-18T04:21:43.563Z,12.23
2023-05-18T04:24:14.532Z,10.82
2023-05-18T04:26:42.718Z,11.32
2023-05-18T04:29:10.821Z,11.20
2023-05-18T04:31:38.286Z,11.70
2023-05-18T04:34:05.497Z,11.57
2023-05-18T04:36:32.618Z,10.82
2023-05-18T04:38:59.888Z,13.25
2023-05-18T04:41:27.024Z,14.20
2023-05-18T04:43:54.197Z,9.30
2023-05-18T04:46:24.470Z,11.40
2023-05-18T04:48:53.088Z,12.20
2023-05-18T04:51:21.702Z,10.18
2023-05-18T04:53:53.086Z,8.05
2023-05-18T04:56:23.776Z,9.27
2023-05-18T04:58:51.486Z,10.63
2023-05-18T05:01:19.227Z,11.20
2023-05-18T05:03:46.630Z,12.85
2023-05-18T05:06:14.046Z,13.80
2023-05-18T05:08:41.179Z,8.48
2023-05-18T05:11:08.325Z,6.15
2023-05-18T05:13:36.138Z,6.47
2023-05-18T05:16:03.471Z,7.32
2023-05-18T05:18:30.698Z,8.52
2023-05-18T05:20:59.270Z,9.95
2023-05-18T05:23:26.484Z,5.82
2023-05-18T05:25:53.635Z,6.38
2023-05-18T05:28:20.761Z,7.22
2023-05-18T05:30:47.921Z,7.20
2023-05-18T05:33:15.334Z,7.65
2023-05-18T05:35:42.504Z,6.10
2023-05-18T05:38:09.741Z,4.00
2023-05-18T05:40:36.875Z,3.22
2023-05-18T05:43:05.743Z,4.15
2023-05-18T05:45:33.078Z,3.70
2023-05-18T05:48:00.658Z,4.20
2023-05-18T05:50:27.909Z,4.40
2023-05-18T05:52:55.086Z,3.92
2023-05-18T05:55:22.764Z,3.95
2023-05-18T05:57:50.055Z,4.10
2023-05-18T06:00:17.357Z,4.03
2023-05-18T06:02:44.555Z,4.32
2023-05-18T06:05:11.687Z,3.90
2023-05-18T06:07:38.968Z,4.75
2023-05-18T06:10:06.341Z,3.85
2023-05-18T06:12:33.492Z,3.47
2023-05-18T06:15:00.692Z,4.45
2023-05-18T06:17:28.051Z,4.13
2023-05-18T06:19:55.220Z,3.95
2023-05-18T06:22:22.519Z,4.00
2023-05-18T06:24:49.650Z,4.78
2023-05-18T06:27:17.115Z,4.63
2023-05-18T06:29:44.277Z,5.03
2023-05-18T06:32:12.715Z,5.20
2023-05-18T06:34:39.917Z,5.30
2023-05-18T06:37:07.193Z,6.65
2023-05-18T06:39:34.306Z,6.25
2023-05-18T06:42:01.410Z,6.60
2023-05-18T06:44:28.570Z,6.25
2023-05-18T06:46:55.720Z,6.43
2023-05-18T06:49:22.869Z,5.90
2023-05-18T06:51:50.502Z,5.40
2023-05-18T06:54:17.680Z,5.40
2023-05-18T06:56:44.874Z,6.22
2023-05-18T06:59:12.088Z,5.80
2023-05-18T07:01:39.277Z,5.90
2023-05-18T07:04:06.738Z,5.85
2023-05-18T07:06:34.020Z,5.32
2023-05-18T07:09:03.141Z,5.40
2023-05-18T07:11:30.405Z,9.23
2023-05-18T07:13:57.562Z,6.15
2023-05-18T07:16:24.747Z,5.40
2023-05-18T07:18:52.055Z,5.63
2023-05-18T07:21:19.263Z,5.38
2023-05-18T07:23:46.611Z,5.90
2023-05-18T07:26:13.764Z,5.43
2023-05-18T07:28:40.937Z,5.43
2023-05-18T07:31:08.151Z,5.15
2023-05-18T07:33:35.638Z,6.07
2023-05-18T07:36:02.800Z,7.05
2023-05-18T07:38:29.937Z,6.82
2023-05-18T07:40:57.047Z,7.70
2023-05-18T07:43:24.187Z,7.13
2023-05-18T07:45:51.302Z,6.68
2023-05-18T07:48:18.461Z,6.57
2023-05-18T07:50:45.623Z,6.50
2023-05-18T07:53:12.768Z,6.18
2023-05-18T07:55:42.053Z,5.32
2023-05-18T07:58:09.594Z,5.65
2023-05-18T08:00:37.412Z,6.13
2023-05-18T08:03:06.749Z,6.13
2023-05-18T08:06:16.213Z,6.97
2023-05-18T08:09:12.797Z,6.28
2023-05-18T08:12:12.378Z,7.40
2023-05-18T08:15:56.134Z,6.40
2023-05-18T08:18:50.068Z,5.63
2023-05-18T08:21:37.483Z,6.53
2023-05-18T08:24:33.704Z,5.28
2023-05-18T08:30:35.464Z,6.32
2023-05-18T08:33:48.367Z,5.75
2023-05-18T08:40:20.752Z,6.10
2023-05-18T08:56:57.475Z,5.85
2023-05-18T09:00:27.838Z,7.20
2023-05-18T09:03:13.786Z,9.52
2023-05-18T09:09:25.446Z,4.75
2023-05-18T09:11:57.213Z,6.35
2023-05-18T09:14:26.144Z,7.10
2023-05-18T09:17:37.078Z,5.47
2023-05-18T09:23:18.670Z,5.18
2023-05-18T09:29:29.475Z,5.10
2023-05-18T09:41:56.785Z,4.82
2023-05-18T09:51:25.151Z,5.22
2023-05-18T09:57:10.167Z,4.35
2023-05-18T10:02:58.363Z,5.22
2023-05-18T10:05:56.064Z,4.88
2023-05-18T10:08:47.788Z,5.60
2023-05-18T10:11:23.692Z,5.88
2023-05-18T10:14:23.178Z,5.50
2023-05-18T10:20:05.439Z,4.13
2023-05-18T10:23:30.349Z,3.85
2023-05-18T10:26:35.882Z,4.82
2023-05-18T10:33:27.906Z,5.10
2023-05-18T10:36:41.207Z,3.88
2023-05-18T10:39:27.072Z,5.32
2023-05-18T11:06:23.960Z,7.40
2023-05-18T11:12:13.981Z,22.02
2023-05-18T11:18:08.240Z,11.65
2023-05-18T11:20:54.836Z,9.38
2023-05-18T11:26:22.423Z,10.75
2023-05-18T11:29:09.194Z,7.90
2023-05-18T11:32:22.670Z,4.57
2023-05-18T11:35:24.482Z,3.30
2023-05-18T11:37:59.672Z,4.70
2023-05-18T11:41:19.628Z,3.70
2023-05-18T11:43:51.468Z,3.53
2023-05-18T11:47:19.592Z,3.58
2023-05-18T11:50:12.533Z,3.22
2023-05-18T11:56:14.941Z,4.38
2023-05-18T11:56:24.527Z,5.70
2023-05-18T12:02:22.360Z,4.00
2023-05-18T12:21:03.955Z,7.53
2023-05-18T12:34:44.569Z,4.43
2023-05-18T12:54:47.525Z,4.93
2023-05-18T12:58:24.002Z,4.30
2023-05-18T13:21:14.716Z,98.90
2023-05-18T13:27:39.048Z,28.52
2023-05-18T13:30:07.016Z,12.15
2023-05-18T14:19:23.288Z,5.50
2023-05-18T14:49:09.000Z,8.95
2023-05-18T15:05:34.755Z,8.75
2023-05-18T15:15:38.344Z,20.17
2023-05-18T15:31:53.136Z,13.18
2023-05-18T15:38:01.222Z,11.13
2023-05-18T16:00:36.063Z,8.95
2023-05-18T16:03:57.470Z,28.45
2023-05-18T16:13:39.220Z,20.15
2023-05-18T16:47:29.218Z,120.97
2023-05-18T16:53:44.571Z,69.65
2023-05-18T16:56:56.072Z,125.45
2023-05-18T16:59:38.688Z,61.10
2023-05-18T17:02:26.156Z,41.78
2023-05-18T17:05:53.352Z,32.28
2023-05-18T17:12:58.819Z,35.70
2023-05-18T17:15:21.109Z,34.83
2023-05-18T17:18:34.426Z,45.03
2023-05-18T17:27:34.476Z,58.30
2023-05-18T17:40:34.513Z,46.22
2023-05-18T17:50:17.021Z,26.75
2023-05-18T18:45:30.468Z,25.38
2023-05-18T18:51:17.623Z,20.63
2023-05-18T19:07:24.790Z,20.50
2023-05-18T19:14:42.384Z,27.45
2023-05-18T19:34:08.784Z,33.35
2023-05-18T19:39:59.000Z,25.58
2023-05-18T19:55:50.886Z,19.70
2023-05-18T19:58:29.673Z,33.75
2023-05-18T20:02:06.185Z,21.50
2023-05-18T20:09:08.581Z,10.40
2023-05-18T20:16:03.520Z,92.30
2023-05-18T20:32:23.371Z,12.32
2023-05-18T20:49:31.496Z,13.35
2023-05-18T20:52:30.282Z,7.07
2023-05-18T21:13:03.278Z,8.25
2023-05-18T21:43:45.575Z,5.40
2023-05-18T21:54:23.003Z,4.78
2023-05-18T22:27:35.820Z,5.90
2023-05-18T22:30:52.929Z,5.93
2023-05-18T22:50:11.500Z,6.05
2023-05-18T22:59:56.950Z,5.30
2023-05-18T23:10:06.957Z,7.07
2023-05-18T23:19:51.775Z,8.38
2023-05-18T23:23:06.441Z,8.27
2023-05-18T23:29:56.380Z,7.53
2023-05-18T23:33:45.915Z,7.53
